Página principal
METAR-TAF:

METAR-TAF

Aeroportos :

Aeroporto Internacional de Calgary

Calgary, Alberta, Canadá

latitude: 51-07N, longitude: 114-01W, altura: 1077 m

Observação actual do tempo

O boletim foi feito há 54 minutos, às 04:00 UTC
Vento 6 kt de sul
Temperatura 5°C
Humidade 56%
Pressão 1017 hPa
Visibilidade: 24.1 km
Poucas nuvensa uma altura de 15000 ft
Poucas nuvensa uma altura de 22000 ft

METAR: CYYC 230400Z 18006KT 15SM FEW150 FEW220 05/M03 A3004 RMK AC1CI1 AC TR CI TR SLP211

Hora: 22:54 (04:54 UTC)

Previsão

O boletim foi feito há 2 horas e 16 minutos, às 02:38 UTC
Previsão válida de 23 às 03 UTC a 23 às 24 UTC
Vento 8 kt de su-sudeste
Visibilidade: 10 km
Céu limpo
Tornando-se
de 23 às 10 UTC a 23 às 12 UTC
Vento 5 kt de su-sudoeste
Tornando-se
de 23 às 18 UTC a 23 às 20 UTC
Vento 5 kt de sudeste

TAF: CYYC 230238Z 2303/2324 15008KT P6SM SKC BECMG 2310/2312 20005KT BECMG 2318/2320 13005KT RMK NXT FCST BY 230600Z

Observações e previsões do tempo de mais de 4000 aeroportos (mensagens METAR e TAF).

As estações disponíveis são os pontos amarelos e vermelhos sobre o mapa.

Mova o rato sobre o mapa para ver o nome da estação.

Depois clique no ponto para visualizar as observações e previsões meteorológicas.

Para alterar o mapa : clique nos botões verdes com uma cruz preta para aumentar o zoom; no botão verde com uma pitada de zoom; ou nas setas verdes para mapas adjacentes.


METAR-TAF: